Time;durP1;ratioP1;P1;durP2;ratioP2;P2;SDS_P1;SDS_P2;PMS_P1;PMS_P2;Temp;Humidity;BMP_temperature;BMP_pressure;BME280_temperature;BME280_humidity;BME280_pressure;Samples;Min_cycle;Max_cycle;Signal;HPM_P1;HPM_P2
2023/07/04 00:01:46;;;;;;;10.50;4.03;;;13.50;99.90;;;;;;4963704;28;20047;-72
2023/07/04 00:04:13;;;;;;;12.68;3.55;;;13.40;99.90;;;;;;4953868;28;20105;-72
2023/07/04 00:06:39;;;;;;;8.02;2.95;;;13.40;99.90;;;;;;4988766;28;20053;-71
2023/07/04 00:09:07;;;;;;;10.80;3.67;;;13.40;99.90;;;;;;4986894;28;20050;-71
2023/07/04 00:11:33;;;;;;;7.65;3.25;;;13.30;99.90;;;;;;4973088;28;20041;-71
2023/07/04 00:13:59;;;;;;;6.82;2.60;;;13.20;99.90;;;;;;4978273;28;20042;-71
2023/07/04 00:16:25;;;;;;;15.68;4.00;;;13.20;99.90;;;;;;4989617;28;20038;-71
2023/07/04 00:18:51;;;;;;;12.43;3.10;;;13.10;99.90;;;;;;4970606;28;20042;-71
2023/07/04 00:21:18;;;;;;;9.38;2.83;;;13.10;99.90;;;;;;4964036;28;20049;-71
2023/07/04 00:23:46;;;;;;;10.60;2.70;;;13.00;99.90;;;;;;4963293;28;20053;-71
2023/07/04 00:26:16;;;;;;;8.43;2.50;;;12.90;99.90;;;;;;4961744;28;20056;-71
2023/07/04 00:28:43;;;;;;;17.95;3.67;;;12.90;99.90;;;;;;4978354;28;20515;-71
2023/07/04 00:31:10;;;;;;;12.45;2.85;;;12.80;99.90;;;;;;4975997;28;20505;-71
2023/07/04 00:33:37;;;;;;;7.72;2.60;;;12.70;99.90;;;;;;4978628;28;20057;-72
2023/07/04 00:36:05;;;;;;;7.68;2.58;;;12.70;99.90;;;;;;4978035;28;20449;-71
2023/07/04 00:38:36;;;;;;;5.40;2.38;;;12.60;99.90;;;;;;4975272;28;20787;-71
2023/07/04 00:41:14;;;;;;;7.22;2.20;;;12.60;99.90;;;;;;4978117;28;20077;-72
2023/07/04 00:43:45;;;;;;;5.50;2.15;;;12.50;99.90;;;;;;4977849;28;20046;-71
2023/07/04 00:46:15;;;;;;;7.70;2.72;;;12.50;99.90;;;;;;4968299;28;20071;-72
2023/07/04 00:48:44;;;;;;;9.32;3.03;;;12.40;99.90;;;;;;4970867;28;20456;-71
2023/07/04 00:51:21;;;;;;;8.52;2.70;;;12.50;99.90;;;;;;4954294;28;20057;-71
2023/07/04 00:53:53;;;;;;;7.05;3.03;;;12.50;99.90;;;;;;4978397;28;20052;-71
2023/07/04 00:56:24;;;;;;;8.98;2.75;;;12.50;99.90;;;;;;4980303;28;20061;-72
2023/07/04 00:58:56;;;;;;;8.55;3.00;;;12.50;99.90;;;;;;4977456;28;20610;-71
2023/07/04 01:01:22;;;;;;;5.72;2.20;;;12.50;99.90;;;;;;4958253;28;20107;-71
2023/07/04 01:03:48;;;;;;;7.13;2.75;;;12.40;99.90;;;;;;4978930;28;20500;-71
2023/07/04 01:06:17;;;;;;;8.32;3.40;;;12.40;99.90;;;;;;4959851;28;20081;-71
2023/07/04 01:08:46;;;;;;;7.55;3.08;;;12.40;99.90;;;;;;4979697;28;20072;-71
2023/07/04 01:11:19;;;;;;;8.80;3.20;;;12.40;99.90;;;;;;4975447;28;20500;-71
2023/07/04 01:13:45;;;;;;;6.20;2.33;;;12.50;99.90;;;;;;4978005;28;20060;-71
2023/07/04 01:16:15;;;;;;;7.15;2.72;;;12.40;99.90;;;;;;4977108;28;20045;-71
2023/07/04 01:18:46;;;;;;;7.82;3.70;;;12.40;99.90;;;;;;4980167;28;20064;-71
2023/07/04 01:21:17;;;;;;;11.52;4.40;;;12.40;99.90;;;;;;4960422;28;20037;-71
2023/07/04 01:24:12;;;;;;;17.60;6.68;;;12.40;99.90;;;;;;4980062;28;20104;-71
2023/07/04 01:26:42;;;;;;;13.98;6.15;;;12.50;99.90;;;;;;4968040;28;20054;-71
2023/07/04 01:29:10;;;;;;;16.25;6.70;;;12.50;99.90;;;;;;4976881;28;20103;-71
2023/07/04 01:31:37;;;;;;;11.68;5.25;;;12.60;99.90;;;;;;4974729;28;20038;-71
2023/07/04 01:34:04;;;;;;;14.35;6.32;;;12.60;99.90;;;;;;4979014;28;20096;-71
2023/07/04 01:36:33;;;;;;;19.58;8.55;;;12.60;99.90;;;;;;4979375;28;20041;-71
2023/07/04 01:38:59;;;;;;;18.80;8.80;;;12.70;99.90;;;;;;4978868;28;20053;-71
2023/07/04 01:41:26;;;;;;;21.40;9.50;;;12.70;99.90;;;;;;4977336;28;20158;-70
2023/07/04 01:44:05;;;;;;;18.17;8.40;;;12.80;99.90;;;;;;4967589;28;20045;-70
2023/07/04 01:46:32;;;;;;;18.15;7.85;;;12.80;99.90;;;;;;4978002;28;20042;-70
2023/07/04 01:48:58;;;;;;;16.90;7.40;;;12.90;99.90;;;;;;4975087;28;20543;-71
2023/07/04 01:51:34;;;;;;;20.05;8.68;;;12.90;99.90;;;;;;4970739;28;20073;-71
2023/07/04 01:54:01;;;;;;;17.27;7.75;;;13.00;99.90;;;;;;4976518;28;20052;-71
2023/07/04 01:56:28;;;;;;;15.90;8.40;;;13.00;99.90;;;;;;4956652;28;20109;-71
2023/07/04 01:58:54;;;;;;;18.23;9.23;;;13.00;99.90;;;;;;4976893;28;20057;-71
2023/07/04 02:01:20;;;;;;;16.13;8.07;;;13.00;99.90;;;;;;4952175;28;20048;-70
2023/07/04 02:03:46;;;;;;;16.70;7.78;;;13.00;99.90;;;;;;4963042;28;20132;-71
2023/07/04 02:06:12;;;;;;;16.23;7.90;;;13.10;99.90;;;;;;4966205;28;20046;-70
2023/07/04 02:08:37;;;;;;;16.27;7.10;;;13.10;99.90;;;;;;4977844;28;20077;-70
2023/07/04 02:11:03;;;;;;;17.60;8.88;;;13.10;99.90;;;;;;4964152;28;20073;-69
2023/07/04 02:13:29;;;;;;;18.92;8.68;;;13.10;99.90;;;;;;4962655;28;20113;-71
2023/07/04 02:15:55;;;;;;;15.43;7.60;;;13.10;99.90;;;;;;4964119;28;20057;-70
2023/07/04 02:18:21;;;;;;;19.88;8.10;;;13.10;99.90;;;;;;4965993;28;20092;-71
2023/07/04 02:20:47;;;;;;;14.68;8.05;;;13.10;99.90;;;;;;4979276;28;20038;-71
2023/07/04 02:23:13;;;;;;;14.82;7.32;;;13.10;99.90;;;;;;4962471;28;20734;-71
2023/07/04 02:25:42;;;;;;;14.25;7.50;;;13.10;99.90;;;;;;4980349;28;20052;-71
2023/07/04 02:28:08;;;;;;;18.10;8.98;;;13.10;99.90;;;;;;4979569;28;20816;-70
2023/07/04 02:30:34;;;;;;;15.82;7.97;;;13.10;99.90;;;;;;4979229;28;20041;-71
2023/07/04 02:33:00;;;;;;;15.60;7.68;;;13.00;99.90;;;;;;4962251;28;20046;-71
2023/07/04 02:35:27;;;;;;;13.60;6.63;;;13.00;99.90;;;;;;4962601;28;20512;-71
2023/07/04 02:37:52;;;;;;;12.20;7.20;;;13.10;99.90;;;;;;4980218;28;20057;-71
2023/07/04 02:40:18;;;;;;;14.68;6.78;;;13.00;99.90;;;;;;4962364;28;20050;-70
2023/07/04 02:42:44;;;;;;;15.98;6.10;;;13.00;99.90;;;;;;4964703;28;20111;-71
2023/07/04 02:45:10;;;;;;;15.23;5.97;;;13.00;99.90;;;;;;4965752;28;20140;-71
2023/07/04 02:47:36;;;;;;;13.57;6.18;;;13.00;99.90;;;;;;4974152;28;20045;-71
2023/07/04 02:50:01;;;;;;;12.73;5.60;;;13.00;99.90;;;;;;4962493;28;20042;-71
2023/07/04 02:52:27;;;;;;;13.50;6.53;;;12.90;99.90;;;;;;4964892;28;20050;-72
2023/07/04 02:54:56;;;;;;;19.05;7.70;;;12.90;99.90;;;;;;4965082;28;20052;-72
2023/07/04 02:57:22;;;;;;;15.00;6.93;;;12.90;99.90;;;;;;4995078;28;20595;-71
2023/07/04 02:59:48;;;;;;;14.98;5.60;;;12.90;99.90;;;;;;4991241;28;20127;-72
2023/07/04 03:02:14;;;;;;;10.93;5.93;;;12.90;99.90;;;;;;4986713;28;20571;-71
2023/07/04 03:04:40;;;;;;;12.85;5.93;;;12.90;99.90;;;;;;4975946;28;20049;-72
2023/07/04 03:07:06;;;;;;;11.05;6.10;;;12.90;99.90;;;;;;4979976;28;20047;-71
2023/07/04 03:09:32;;;;;;;11.63;5.88;;;12.90;99.90;;;;;;4974930;28;20101;-72
2023/07/04 03:11:58;;;;;;;15.85;6.43;;;12.90;99.90;;;;;;4967752;28;20067;-71
2023/07/04 03:14:25;;;;;;;12.63;6.07;;;12.90;99.90;;;;;;4971879;28;20069;-72
2023/07/04 03:16:51;;;;;;;17.08;6.80;;;12.90;99.90;;;;;;4986321;28;20162;-71
2023/07/04 03:19:17;;;;;;;17.17;7.40;;;12.90;99.90;;;;;;4975359;28;20047;-71
2023/07/04 03:21:43;;;;;;;11.85;5.93;;;12.90;99.90;;;;;;4987971;28;20043;-72
2023/07/04 03:24:09;;;;;;;13.32;7.32;;;12.90;99.90;;;;;;4988491;28;20442;-71
2023/07/04 03:26:34;;;;;;;13.25;6.63;;;12.90;99.90;;;;;;4973438;28;20046;-72
2023/07/04 03:29:01;;;;;;;11.68;5.57;;;13.00;99.90;;;;;;4986599;28;20542;-72
2023/07/04 03:31:27;;;;;;;12.48;6.68;;;13.00;99.90;;;;;;4992932;28;20078;-72
2023/07/04 03:33:53;;;;;;;12.98;6.30;;;13.00;99.90;;;;;;4987562;28;20089;-72
2023/07/04 03:36:19;;;;;;;14.30;7.32;;;13.00;99.90;;;;;;4992540;28;20043;-72
2023/07/04 03:38:45;;;;;;;12.25;6.13;;;13.00;99.90;;;;;;4972285;28;20472;-71
2023/07/04 03:41:11;;;;;;;15.43;7.55;;;12.90;99.90;;;;;;4986712;28;20329;-72
2023/07/04 03:43:37;;;;;;;15.88;7.40;;;13.00;99.90;;;;;;4954051;28;20245;-72
2023/07/04 03:46:04;;;;;;;16.10;6.90;;;12.90;99.90;;;;;;4988800;28;20068;-72
2023/07/04 03:48:30;;;;;;;12.85;5.93;;;12.90;99.90;;;;;;4985785;28;20043;-71
2023/07/04 03:50:56;;;;;;;13.98;7.18;;;12.90;99.90;;;;;;4979772;28;20043;-71
2023/07/04 03:53:22;;;;;;;12.15;7.40;;;12.90;99.90;;;;;;4989997;28;20069;-71
2023/07/04 03:55:49;;;;;;;13.23;7.45;;;12.90;99.90;;;;;;4974199;28;20057;-70
2023/07/04 03:58:17;;;;;;;19.83;8.90;;;12.90;99.90;;;;;;4971494;28;20070;-71
2023/07/04 04:00:47;;;;;;;14.32;7.78;;;12.90;99.90;;;;;;4978950;28;20046;-71
2023/07/04 04:03:13;;;;;;;14.35;7.50;;;12.90;99.90;;;;;;4969095;28;20518;-71
2023/07/04 04:05:41;;;;;;;18.00;8.48;;;12.90;99.90;;;;;;4965916;28;20089;-71
2023/07/04 04:08:09;;;;;;;18.10;8.60;;;12.90;99.90;;;;;;4955580;28;20409;-71
2023/07/04 04:10:35;;;;;;;16.23;7.18;;;12.90;99.90;;;;;;4965167;28;20089;-71
2023/07/04 04:13:01;;;;;;;15.32;7.63;;;12.90;99.90;;;;;;4954207;28;20438;-71
2023/07/04 04:15:27;;;;;;;16.38;8.38;;;13.00;99.90;;;;;;4949076;28;20569;-71
2023/07/04 04:17:56;;;;;;;13.48;7.45;;;13.00;99.90;;;;;;4945105;28;20125;-70
2023/07/04 04:20:22;;;;;;;13.88;7.57;;;13.00;99.90;;;;;;4958606;28;20160;-71
2023/07/04 04:22:48;;;;;;;13.88;7.47;;;13.00;99.90;;;;;;4961059;28;20030;-76
2023/07/04 04:25:16;;;;;;;14.65;7.50;;;13.00;99.90;;;;;;4961709;28;20058;-76
2023/07/04 04:27:43;;;;;;;21.70;9.30;;;13.00;99.90;;;;;;4961697;28;20147;-77
2023/07/04 04:30:10;;;;;;;17.35;7.65;;;13.00;99.90;;;;;;4945863;28;20498;-77
2023/07/04 04:32:40;;;;;;;21.00;9.43;;;13.00;99.90;;;;;;4962857;28;20571;-77
2023/07/04 04:35:08;;;;;;;17.10;8.93;;;13.10;99.90;;;;;;4961635;28;20054;-76
2023/07/04 04:37:34;;;;;;;14.80;8.43;;;13.10;99.90;;;;;;4944431;28;20411;-78
2023/07/04 04:40:00;;;;;;;16.13;7.57;;;13.10;99.90;;;;;;4961761;28;20047;-78
2023/07/04 04:42:27;;;;;;;13.80;7.40;;;13.10;99.90;;;;;;4948005;28;20489;-76
2023/07/04 04:44:56;;;;;;;14.88;7.55;;;13.20;99.90;;;;;;4963400;28;20043;-76
2023/07/04 04:47:23;;;;;;;15.65;7.90;;;13.20;99.90;;;;;;4949006;28;20050;-76
2023/07/04 04:50:08;;;;;;;15.27;7.78;;;13.20;99.90;;;;;;4957492;28;20101;-77
2023/07/04 04:52:33;;;;;;;10.88;6.35;;;13.30;99.90;;;;;;4963675;28;20039;-76
2023/07/04 04:55:02;;;;;;;15.85;7.88;;;13.30;99.90;;;;;;4963058;28;20051;-77
2023/07/04 04:57:29;;;;;;;13.70;7.10;;;13.30;99.90;;;;;;4964653;28;20046;-76
2023/07/04 04:59:59;;;;;;;15.45;6.55;;;13.30;99.90;;;;;;4949684;28;20057;-77
2023/07/04 05:02:25;;;;;;;13.82;6.88;;;13.40;99.90;;;;;;4947392;28;20047;-76
2023/07/04 05:04:51;;;;;;;15.38;7.18;;;13.40;99.90;;;;;;4962800;28;20047;-76
2023/07/04 05:07:18;;;;;;;12.95;7.20;;;13.40;99.90;;;;;;4984512;28;20064;-76
2023/07/04 05:09:44;;;;;;;13.48;6.68;;;13.40;99.90;;;;;;4987605;28;20132;-76
2023/07/04 05:12:10;;;;;;;11.10;6.05;;;13.40;99.90;;;;;;5000202;28;20293;-76
2023/07/04 05:14:35;;;;;;;12.77;6.05;;;13.50;99.90;;;;;;4983332;28;20660;-75
2023/07/04 05:17:02;;;;;;;13.38;7.10;;;13.50;99.90;;;;;;5001161;28;20038;-76
2023/07/04 05:19:27;;;;;;;11.35;5.55;;;13.50;99.90;;;;;;4968375;28;20377;-76
2023/07/04 05:21:53;;;;;;;10.70;5.38;;;13.50;99.90;;;;;;4970965;28;20371;-76
2023/07/04 05:24:19;;;;;;;10.32;5.63;;;13.50;99.90;;;;;;4971882;28;20080;-76
2023/07/04 05:26:45;;;;;;;12.20;5.38;;;13.50;99.90;;;;;;4952843;28;20416;-77
2023/07/04 05:29:10;;;;;;;9.73;5.13;;;13.60;99.90;;;;;;4969820;28;20049;-76
2023/07/04 05:31:37;;;;;;;10.20;4.50;;;13.60;99.90;;;;;;5001653;28;20042;-76
2023/07/04 05:34:02;;;;;;;9.27;4.45;;;13.60;99.90;;;;;;4982071;28;20436;-76
2023/07/04 05:36:31;;;;;;;8.35;4.28;;;13.70;99.90;;;;;;4978986;28;20053;-76
2023/07/04 05:39:01;;;;;;;10.02;4.50;;;13.70;99.90;;;;;;4967980;28;20050;-76
2023/07/04 05:41:30;;;;;;;9.52;4.70;;;13.70;99.90;;;;;;4985278;28;20050;-76
2023/07/04 05:43:59;;;;;;;10.15;4.32;;;13.70;99.90;;;;;;5004921;28;20088;-76
2023/07/04 05:46:25;;;;;;;9.18;4.95;;;13.80;99.90;;;;;;4974055;28;20037;-76
2023/07/04 05:48:51;;;;;;;8.85;4.25;;;13.80;99.90;;;;;;4983829;28;20045;-75
2023/07/04 05:51:17;;;;;;;8.55;3.80;;;13.80;99.90;;;;;;4973552;28;20033;-75
2023/07/04 05:53:47;;;;;;;11.07;4.07;;;13.80;99.90;;;;;;4986896;28;20030;-75
2023/07/04 05:56:19;;;;;;;9.90;3.80;;;13.90;99.90;;;;;;4981408;28;20523;-76
2023/07/04 05:58:51;;;;;;;6.25;2.95;;;13.90;99.90;;;;;;4991442;28;20034;-75
2023/07/04 06:01:25;;;;;;;7.10;3.25;;;13.90;99.90;;;;;;4970070;28;20107;-75
2023/07/04 06:03:52;;;;;;;9.57;3.00;;;14.00;99.90;;;;;;4983090;28;20050;-75
2023/07/04 06:06:39;;;;;;;7.60;3.15;;;14.00;99.90;;;;;;4983639;28;20042;-75
2023/07/04 06:09:09;;;;;;;7.22;3.30;;;14.10;99.90;;;;;;4968981;28;20143;-75
2023/07/04 06:11:38;;;;;;;7.40;2.65;;;14.10;99.90;;;;;;4985578;28;20037;-75
2023/07/04 06:14:05;;;;;;;7.70;2.73;;;14.20;99.90;;;;;;4975071;28;20422;-76
2023/07/04 06:16:33;;;;;;;7.63;2.50;;;14.20;99.90;;;;;;4987434;28;20046;-75
2023/07/04 06:18:59;;;;;;;8.60;2.65;;;14.40;99.90;;;;;;4984661;28;20084;-77
2023/07/04 06:21:26;;;;;;;6.55;2.40;;;14.40;99.90;;;;;;4969828;28;20096;-75
2023/07/04 06:23:54;;;;;;;5.45;2.08;;;14.50;99.90;;;;;;4962347;28;20045;-76
2023/07/04 06:26:21;;;;;;;11.48;3.15;;;14.50;99.90;;;;;;4969578;28;20049;-75
2023/07/04 06:28:49;;;;;;;6.53;2.53;;;14.50;99.90;;;;;;4968585;28;20121;-75
2023/07/04 06:31:16;;;;;;;9.02;3.10;;;14.60;99.90;;;;;;4970582;28;20446;-75
2023/07/04 06:33:42;;;;;;;8.55;3.08;;;14.60;99.90;;;;;;4974624;28;20042;-75
2023/07/04 06:36:13;;;;;;;8.13;2.78;;;14.60;99.90;;;;;;4986913;28;20400;-76
2023/07/04 06:38:39;;;;;;;7.38;2.65;;;14.70;99.90;;;;;;4967965;28;20045;-71
2023/07/04 06:41:08;;;;;;;5.78;2.42;;;14.60;99.90;;;;;;4999146;28;20049;-72
2023/07/04 06:43:34;;;;;;;7.40;2.42;;;14.70;99.90;;;;;;4967332;28;20030;-72
2023/07/04 06:46:00;;;;;;;8.90;2.40;;;14.80;99.90;;;;;;4981947;28;20053;-72
2023/07/04 06:48:27;;;;;;;7.32;2.60;;;14.80;99.90;;;;;;4983060;28;20691;-72
2023/07/04 06:50:57;;;;;;;7.00;2.10;;;14.80;99.90;;;;;;4972038;28;20439;-71
2023/07/04 06:53:23;;;;;;;9.48;2.70;;;14.90;99.90;;;;;;4975322;28;20096;-72
2023/07/04 06:55:49;;;;;;;6.53;2.00;;;14.90;99.90;;;;;;4984447;28;20133;-72
2023/07/04 06:58:15;;;;;;;9.65;2.30;;;14.90;99.90;;;;;;4983898;28;20125;-72
2023/07/04 07:00:41;;;;;;;7.85;2.17;;;15.00;99.90;;;;;;4979636;28;20088;-72
2023/07/04 07:03:07;;;;;;;9.02;2.88;;;15.00;99.90;;;;;;4967010;28;20504;-72
2023/07/04 07:05:41;;;;;;;7.78;2.55;;;15.10;99.90;;;;;;4982128;28;20053;-72
2023/07/04 07:08:07;;;;;;;8.25;2.55;;;15.20;99.90;;;;;;4969037;28;20700;-72
2023/07/04 07:10:36;;;;;;;6.00;2.10;;;15.20;99.90;;;;;;4986825;28;20057;-72
2023/07/04 07:13:05;;;;;;;7.50;1.92;;;15.30;99.90;;;;;;4984139;28;20128;-72
2023/07/04 07:15:31;;;;;;;6.93;2.08;;;15.30;99.90;;;;;;4987439;28;20133;-72
2023/07/04 07:17:56;;;;;;;9.13;2.05;;;15.30;99.90;;;;;;4984942;28;20475;-72
2023/07/04 07:20:22;;;;;;;6.72;2.03;;;15.30;99.90;;;;;;4981872;28;22149;-72
2023/07/04 07:22:48;;;;;;;5.15;1.75;;;15.40;99.90;;;;;;4973089;28;20100;-72
2023/07/04 07:25:14;;;;;;;4.78;1.70;;;15.40;99.90;;;;;;4999920;28;20061;-72
2023/07/04 07:27:43;;;;;;;5.57;1.95;;;15.40;99.90;;;;;;4984762;28;20034;-73
2023/07/04 07:30:09;;;;;;;5.50;1.95;;;15.40;99.90;;;;;;4984371;28;20048;-73
2023/07/04 07:32:39;;;;;;;7.32;2.08;;;15.40;99.90;;;;;;4965622;28;20070;-73
2023/07/04 07:35:05;;;;;;;7.20;1.92;;;15.50;99.90;;;;;;4981567;28;20081;-73
2023/07/04 07:37:31;;;;;;;8.15;1.85;;;15.50;99.90;;;;;;4978629;28;20042;-73
2023/07/04 07:39:57;;;;;;;7.88;2.15;;;15.50;99.90;;;;;;4969338;28;20042;-73
2023/07/04 07:42:23;;;;;;;7.10;2.33;;;15.60;99.90;;;;;;4997638;28;20050;-73
2023/07/04 07:44:48;;;;;;;8.55;2.00;;;15.60;99.90;;;;;;4988001;28;20141;-73
2023/07/04 07:47:14;;;;;;;5.60;1.83;;;15.70;99.90;;;;;;4986152;28;20077;-73
2023/07/04 07:49:40;;;;;;;7.30;2.00;;;15.80;99.90;;;;;;4987334;28;20050;-73
2023/07/04 07:52:06;;;;;;;6.20;1.80;;;15.90;99.90;;;;;;4985134;28;20110;-73
2023/07/04 07:54:34;;;;;;;8.52;2.17;;;16.00;99.90;;;;;;4973110;28;20516;-73
2023/07/04 07:57:00;;;;;;;6.18;1.67;;;16.10;99.90;;;;;;4988152;28;20038;-72
2023/07/04 07:59:25;;;;;;;7.82;2.05;;;16.20;99.90;;;;;;4983210;28;20035;-72
2023/07/04 08:01:53;;;;;;;5.75;1.63;;;16.30;99.90;;;;;;4983851;28;20073;-72
2023/07/04 08:04:18;;;;;;;7.68;2.05;;;16.40;99.90;;;;;;4987132;28;20644;-73
2023/07/04 08:06:45;;;;;;;6.15;1.88;;;16.40;99.90;;;;;;4967436;28;20165;-72
2023/07/04 08:09:13;;;;;;;8.23;1.90;;;16.40;99.90;;;;;;4970389;28;20093;-72
2023/07/04 08:11:41;;;;;;;7.75;1.98;;;16.40;99.90;;;;;;4985797;28;20459;-72
2023/07/04 08:14:07;;;;;;;7.35;1.80;;;16.50;99.90;;;;;;4984009;28;20061;-72
2023/07/04 08:16:51;;;;;;;7.50;1.77;;;16.50;99.90;;;;;;4989735;28;20567;-72
2023/07/04 08:19:18;;;;;;;6.53;1.80;;;16.50;99.90;;;;;;4967890;28;20929;-72
2023/07/04 08:21:45;;;;;;;7.75;1.77;;;16.50;99.90;;;;;;4970899;28;20132;-72
2023/07/04 08:24:12;;;;;;;7.68;1.73;;;16.50;99.90;;;;;;4969048;28;20041;-73
2023/07/04 08:26:47;;;;;;;8.85;2.20;;;16.50;99.90;;;;;;4978921;28;20064;-73
2023/07/04 08:29:14;;;;;;;7.68;2.10;;;16.50;99.90;;;;;;4974839;28;20041;-72
2023/07/04 08:31:42;;;;;;;8.18;2.10;;;16.50;99.90;;;;;;4988251;28;20805;-72
2023/07/04 08:34:12;;;;;;;8.10;2.17;;;16.50;99.90;;;;;;4985495;28;20042;-73
2023/07/04 08:36:39;;;;;;;8.38;2.05;;;16.50;99.90;;;;;;4975234;28;20057;-73
2023/07/04 08:39:05;;;;;;;8.05;2.40;;;16.50;99.90;;;;;;4987063;28;20388;-73
2023/07/04 08:41:53;;;;;;;6.07;2.00;;;16.40;99.90;;;;;;4970793;28;20042;-73
2023/07/04 08:44:43;;;;;;;8.73;2.35;;;16.50;99.90;;;;;;4984010;28;20038;-73
2023/07/04 08:47:10;;;;;;;;;;;16.50;99.90;;;;;;4967288;28;20047;-73
2023/07/04 08:49:50;;;;;;;7.53;2.45;;;16.60;99.90;;;;;;4986728;28;19976;-73
2023/07/04 08:52:29;;;;;;;8.43;2.40;;;16.70;99.90;;;;;;4971273;28;20108;-73
2023/07/04 08:54:55;;;;;;;12.07;2.65;;;16.80;99.90;;;;;;4972273;28;20064;-73
2023/07/04 08:57:35;;;;;;;10.38;2.10;;;16.90;99.90;;;;;;4996982;28;20496;-72
2023/07/04 09:00:08;;;;;;;8.85;2.20;;;16.90;99.90;;;;;;4983592;28;20037;-73
2023/07/04 09:02:35;;;;;;;7.55;2.05;;;17.00;99.90;;;;;;4985015;28;20121;-73
2023/07/04 09:05:10;;;;;;;11.15;2.38;;;16.90;99.90;;;;;;4982636;28;20057;-73
2023/07/04 09:08:00;;;;;;;9.07;2.35;;;16.90;99.90;;;;;;4968823;28;20042;-73
2023/07/04 09:10:29;;;;;;;8.98;2.08;;;16.90;99.90;;;;;;4972605;28;20075;-73
2023/07/04 09:12:55;;;;;;;8.13;2.10;;;16.90;99.90;;;;;;4990660;28;20057;-73
2023/07/04 09:15:28;;;;;;;9.43;2.47;;;17.00;99.90;;;;;;4983867;28;20334;-73
2023/07/04 09:18:21;;;;;;;9.23;2.15;;;17.00;99.90;;;;;;4979894;28;20164;-73
2023/07/04 09:21:13;;;;;;;9.32;2.45;;;17.10;99.90;;;;;;4977420;28;20112;-73
2023/07/04 09:23:39;;;;;;;12.13;2.60;;;17.10;99.90;;;;;;4970056;28;20448;-73
2023/07/04 09:26:09;;;;;;;10.48;2.40;;;17.20;99.90;;;;;;4984610;28;20061;-73
2023/07/04 09:28:43;;;;;;;9.82;2.60;;;17.30;99.90;;;;;;4985588;28;20050;-74
2023/07/04 09:31:19;;;;;;;9.48;2.58;;;17.40;99.90;;;;;;4986995;28;20034;-73
2023/07/04 09:33:47;;;;;;;10.20;2.78;;;17.60;99.90;;;;;;4986323;28;21066;-74
2023/07/04 09:36:15;;;;;;;9.98;2.72;;;17.80;99.90;;;;;;4986280;28;20421;-73
2023/07/04 09:38:51;;;;;;;10.73;2.60;;;17.80;99.90;;;;;;4967461;28;20049;-74
2023/07/04 09:41:17;;;;;;;8.38;2.67;;;17.90;99.90;;;;;;4984370;28;20926;-74
2023/07/04 09:43:43;;;;;;;10.32;3.28;;;17.90;99.90;;;;;;4965639;28;20034;-74
2023/07/04 09:46:30;;;;;;;9.80;2.72;;;17.90;99.90;;;;;;4982729;28;20045;-73
2023/07/04 09:49:30;;;;;;;7.93;2.60;;;18.10;99.90;;;;;;4985832;28;20108;-73
2023/07/04 09:52:05;;;;;;;9.50;2.97;;;18.30;99.90;;;;;;4987140;28;20048;-73
2023/07/04 09:54:41;;;;;;;8.85;2.65;;;18.60;99.90;;;;;;4988291;28;20037;-73
2023/07/04 09:57:27;;;;;;;6.45;2.30;;;18.80;99.90;;;;;;4983946;28;20042;-73
2023/07/04 09:59:54;;;;;;;9.88;3.05;;;19.00;99.90;;;;;;4966775;28;20038;-73
2023/07/04 10:02:40;;;;;;;10.82;2.80;;;19.10;99.90;;;;;;4982148;28;20049;-77
2023/07/04 10:05:09;;;;;;;12.02;2.60;;;19.10;99.90;;;;;;4984422;28;20064;-76
2023/07/04 10:07:36;;;;;;;9.75;2.35;;;18.90;99.90;;;;;;4970174;28;20053;-77
2023/07/04 10:10:12;;;;;;;7.88;2.92;;;18.70;99.90;;;;;;4971509;28;20042;-75
2023/07/04 10:12:44;;;;;;;9.82;2.83;;;18.80;99.90;;;;;;4986254;28;20056;-73
2023/07/04 10:15:10;;;;;;;14.73;3.10;;;19.00;99.90;;;;;;4976633;28;20083;-77
2023/07/04 10:17:39;;;;;;;8.82;2.30;;;19.00;99.90;;;;;;4965019;28;20444;-77
2023/07/04 10:20:35;;;;;;;11.45;2.63;;;19.10;99.90;;;;;;4984761;28;20081;-77
2023/07/04 10:23:00;;;;;;;11.02;2.25;;;19.40;99.90;;;;;;4988510;28;20064;-77
2023/07/04 10:25:29;;;;;;;8.60;2.33;;;19.60;99.90;;;;;;5003503;28;20054;-77
2023/07/04 10:28:13;;;;;;;11.57;2.50;;;19.90;99.90;;;;;;4973078;28;20675;-77
2023/07/04 10:30:43;;;;;;;6.35;2.08;;;20.20;99.90;;;;;;4975658;28;20034;-73
2023/07/04 10:33:15;;;;;;;6.63;2.17;;;20.20;99.90;;;;;;4979180;28;20056;-74
2023/07/04 10:35:45;;;;;;;8.05;2.20;;;20.00;99.90;;;;;;4966661;28;20133;-73
2023/07/04 10:38:28;;;;;;;8.07;2.28;;;19.90;99.90;;;;;;4967442;28;20084;-74
2023/07/04 10:40:55;;;;;;;8.52;2.05;;;19.90;99.90;;;;;;4983683;28;20492;-73
2023/07/04 10:43:32;;;;;;;7.80;1.92;;;19.90;99.40;;;;;;4983421;28;20057;-74
2023/07/04 10:46:01;;;;;;;9.40;2.00;;;19.90;97.40;;;;;;4982356;28;20489;-75
2023/07/04 10:48:31;;;;;;;7.88;1.85;;;19.80;98.40;;;;;;4971316;28;20446;-73
2023/07/04 10:51:03;;;;;;;7.15;2.15;;;19.90;99.20;;;;;;4980513;28;20049;-74
2023/07/04 10:53:29;;;;;;;7.03;1.98;;;19.90;99.90;;;;;;4980160;28;20054;-74
2023/07/04 10:56:04;;;;;;;8.70;2.30;;;20.00;99.90;;;;;;4980904;28;20054;-73
2023/07/04 10:58:41;;;;;;;11.00;1.88;;;20.30;99.90;;;;;;4978802;28;20044;-74
2023/07/04 11:01:24;;;;;;;10.45;2.50;;;20.50;99.00;;;;;;4978722;28;20050;-74
2023/07/04 11:03:59;;;;;;;6.70;1.98;;;20.40;95.40;;;;;;4981072;28;20057;-75
2023/07/04 11:06:32;;;;;;;6.28;1.52;;;20.10;96.00;;;;;;4975817;28;20054;-74
2023/07/04 11:09:00;;;;;;;7.18;1.73;;;19.90;97.20;;;;;;4969681;28;20038;-74
2023/07/04 11:11:29;;;;;;;8.27;2.53;;;19.70;96.50;;;;;;4979700;28;20541;-74
2023/07/04 11:14:00;;;;;;;7.68;1.95;;;19.60;94.60;;;;;;4988444;28;20046;-75
2023/07/04 11:16:31;;;;;;;9.32;2.53;;;19.40;96.10;;;;;;4984378;28;20212;-74
2023/07/04 11:19:12;;;;;;;7.45;2.13;;;19.30;97.60;;;;;;4968308;28;20056;-74
2023/07/04 11:22:00;;;;;;;7.82;2.47;;;19.20;98.30;;;;;;4990605;28;20082;-74
2023/07/04 11:24:33;;;;;;;6.70;2.28;;;19.20;99.90;;;;;;4931395;28;20050;-78
2023/07/04 11:27:05;;;;;;;7.55;2.35;;;19.40;99.90;;;;;;4968481;28;20130;-77
2023/07/04 11:29:54;;;;;;;8.85;2.10;;;19.60;97.40;;;;;;4985541;28;20511;-78
2023/07/04 11:32:53;;;;;;;8.17;2.50;;;19.70;97.00;;;;;;4986790;28;20042;-78
2023/07/04 11:35:23;;;;;;;7.68;2.13;;;19.50;96.50;;;;;;4980037;28;20061;-78
2023/07/04 11:37:57;;;;;;;11.90;2.53;;;19.40;97.60;;;;;;4967545;28;20436;-78
2023/07/04 11:40:28;;;;;;;5.97;2.00;;;19.30;98.60;;;;;;4969443;28;20054;-76
2023/07/04 11:43:21;;;;;;;7.78;2.53;;;19.30;98.80;;;;;;4988989;28;20088;-78
2023/07/04 11:45:48;;;;;;;6.85;2.25;;;19.30;99.30;;;;;;4984861;28;20042;-78
2023/07/04 11:48:18;;;;;;;9.23;2.60;;;19.10;99.70;;;;;;4969998;28;20056;-75
2023/07/04 11:50:48;;;;;;;7.68;2.40;;;19.10;99.90;;;;;;4967035;28;20392;-78
2023/07/04 11:53:21;;;;;;;9.43;2.67;;;19.10;99.90;;;;;;4989997;28;20046;-77
2023/07/04 11:56:14;;;;;;;5.60;2.13;;;19.10;99.90;;;;;;4987769;28;20042;-77
2023/07/04 11:58:40;;;;;;;8.90;2.35;;;19.10;99.90;;;;;;4987642;28;20085;-77
2023/07/04 12:01:07;;;;;;;8.88;2.53;;;19.00;99.90;;;;;;4981753;28;20077;-79
2023/07/04 12:03:48;;;;;;;7.97;2.10;;;19.00;99.90;;;;;;4985192;28;20047;-76
2023/07/04 12:06:54;;;;;;;8.30;2.40;;;19.00;99.60;;;;;;4988526;28;20550;-76
2023/07/04 12:09:28;;;;;;;7.13;2.38;;;18.90;98.90;;;;;;4967071;28;20077;-76
2023/07/04 12:11:56;;;;;;;8.00;2.40;;;18.80;99.20;;;;;;4970067;28;20046;-76
2023/07/04 12:14:22;;;;;;;8.85;2.50;;;18.90;99.10;;;;;;4970402;28;20054;-76
2023/07/04 12:16:48;;;;;;;8.70;2.42;;;18.90;98.80;;;;;;4972716;28;20385;-76
2023/07/04 12:19:16;;;;;;;6.40;2.38;;;18.90;98.30;;;;;;4975166;28;20599;-76
2023/07/04 12:21:45;;;;;;;8.40;2.45;;;18.90;97.90;;;;;;4971043;28;20049;-76
2023/07/04 12:24:15;;;;;;;9.23;2.13;;;19.20;99.90;;;;;;4987965;28;20054;-76
2023/07/04 12:26:42;;;;;;;8.25;1.98;;;19.50;99.10;;;;;;4972609;28;20428;-77
2023/07/04 12:29:08;;;;;;;9.73;2.53;;;19.70;97.90;;;;;;4977339;28;20449;-76
2023/07/04 12:31:34;;;;;;;8.73;2.35;;;19.80;95.90;;;;;;4970318;28;20125;-76
2023/07/04 12:34:00;;;;;;;8.07;2.30;;;19.70;95.30;;;;;;4970141;28;20050;-75
2023/07/04 12:36:33;;;;;;;7.75;2.65;;;19.50;95.90;;;;;;4987633;28;20378;-76
2023/07/04 12:39:03;;;;;;;6.97;1.95;;;19.40;95.20;;;;;;4987208;28;20053;-78
2023/07/04 12:41:32;;;;;;;9.20;2.10;;;19.40;94.90;;;;;;4989142;28;20041;-75
2023/07/04 12:44:04;;;;;;;9.82;2.45;;;19.40;94.40;;;;;;4992992;28;20037;-76
2023/07/04 12:46:31;;;;;;;6.70;2.13;;;19.40;94.70;;;;;;4988745;28;20052;-76
2023/07/04 12:48:58;;;;;;;7.25;2.45;;;19.30;95.40;;;;;;4972594;28;20085;-77
2023/07/04 12:51:30;;;;;;;6.93;1.95;;;19.20;95.80;;;;;;4967209;28;20045;-76
2023/07/04 12:54:02;;;;;;;10.27;2.50;;;19.10;95.50;;;;;;4986584;28;20054;-76
2023/07/04 12:56:29;;;;;;;8.20;2.15;;;19.10;95.40;;;;;;4972766;28;20054;-76